Time;durP1;ratioP1;P1;durP2;ratioP2;P2;SDS_P1;SDS_P2;PMS_P1;PMS_P2;Temp;Humidity;BMP_temperature;BMP_pressure;BME280_temperature;BME280_humidity;BME280_pressure;Samples;Min_cycle;Max_cycle;Signal;HPM_P1;HPM_P2
2021/08/22 04:33:26;;;;;;;4.10;3.73;;;16.70;99.90;;;;;;5144968;23;20505;-78
2021/08/22 04:35:53;;;;;;;4.43;4.00;;;16.70;99.90;;;;;;4875436;29;20458;-77
2021/08/22 04:38:20;;;;;;;4.40;3.33;;;16.70;99.90;;;;;;4879137;29;20408;-77
2021/08/22 04:41:06;;;;;;;4.60;3.60;;;16.60;99.90;;;;;;4877108;29;20496;-78
2021/08/22 04:43:35;;;;;;;3.70;3.07;;;16.60;99.90;;;;;;4876444;29;20431;-77
2021/08/22 04:46:01;;;;;;;4.93;4.03;;;16.60;99.90;;;;;;4879062;29;20419;-77
2021/08/22 04:48:53;;;;;;;4.23;3.93;;;16.70;99.90;;;;;;4878863;29;20921;-77
2021/08/22 04:51:25;;;;;;;5.17;4.07;;;16.60;99.90;;;;;;4877352;29;20852;-77
2021/08/22 04:53:51;;;;;;;8.50;4.30;;;16.60;99.90;;;;;;4878227;29;20858;-77
2021/08/22 04:56:18;;;;;;;4.70;4.30;;;16.60;99.90;;;;;;4878543;29;20676;-76
2021/08/22 04:58:44;;;;;;;4.80;4.30;;;16.70;99.90;;;;;;4878307;29;20427;-76
2021/08/22 05:01:20;;;;;;;6.47;3.60;;;16.70;99.90;;;;;;4876950;29;20451;-76
2021/08/22 05:03:47;;;;;;;4.83;4.23;;;16.80;99.90;;;;;;4878235;29;20227;-76
2021/08/22 05:06:17;;;;;;;4.10;3.80;;;16.80;99.90;;;;;;4876831;29;20527;-76
2021/08/22 05:08:44;;;;;;;4.17;3.57;;;16.90;99.90;;;;;;4878409;29;20865;-76
2021/08/22 05:11:10;;;;;;;7.23;3.80;;;17.00;99.90;;;;;;4877892;29;20472;-76
2021/08/22 05:13:37;;;;;;;6.50;4.37;;;17.00;99.90;;;;;;4877941;29;20471;-76
2021/08/22 05:16:08;;;;;;;4.30;3.93;;;17.00;99.90;;;;;;4878245;29;20178;-76
2021/08/22 05:18:35;;;;;;;4.80;4.27;;;17.10;99.90;;;;;;4878318;29;20412;-76
2021/08/22 05:21:04;;;;;;;4.87;3.97;;;17.10;99.90;;;;;;4878140;29;20440;-76
2021/08/22 05:23:32;;;;;;;5.67;4.10;;;17.20;99.90;;;;;;4880119;29;20427;-76
2021/08/22 05:25:57;;;;;;;4.17;3.80;;;17.20;99.90;;;;;;4883508;29;20424;-77
2021/08/22 05:28:24;;;;;;;5.73;3.50;;;17.20;99.90;;;;;;4883505;29;20431;-77
2021/08/22 05:30:50;;;;;;;5.50;3.67;;;17.20;99.90;;;;;;4881572;29;20242;-77
2021/08/22 05:33:15;;;;;;;4.83;4.27;;;17.30;99.90;;;;;;4881311;29;20428;-77
2021/08/22 05:35:41;;;;;;;4.47;3.47;;;17.30;99.90;;;;;;4881494;29;20186;-77
2021/08/22 05:38:08;;;;;;;5.70;3.80;;;17.30;99.90;;;;;;4881238;29;20298;-77
2021/08/22 05:40:35;;;;;;;6.23;4.43;;;17.40;99.90;;;;;;4881041;29;20444;-77
2021/08/22 05:43:00;;;;;;;4.50;4.10;;;17.40;99.90;;;;;;4881282;29;20423;-77
2021/08/22 05:45:26;;;;;;;5.10;4.47;;;17.40;99.90;;;;;;4881293;29;20503;-77
2021/08/22 05:47:52;;;;;;;5.03;4.50;;;17.40;99.90;;;;;;4880853;29;20368;-76
2021/08/22 05:50:18;;;;;;;5.10;3.73;;;17.50;99.90;;;;;;4880746;29;20223;-77
2021/08/22 05:52:44;;;;;;;5.70;4.20;;;17.50;99.90;;;;;;4880893;29;20673;-77
2021/08/22 05:55:11;;;;;;;4.77;4.17;;;17.50;99.90;;;;;;4880907;29;20553;-76
2021/08/22 05:57:37;;;;;;;5.17;4.47;;;17.60;99.90;;;;;;4880817;29;20789;-76
2021/08/22 06:00:05;;;;;;;5.70;5.20;;;17.60;99.90;;;;;;4880851;29;20981;-77
2021/08/22 06:02:30;;;;;;;4.87;4.37;;;17.80;99.90;;;;;;4880813;29;20443;-77
2021/08/22 06:04:56;;;;;;;4.73;4.33;;;17.80;99.90;;;;;;4880675;29;20968;-77
2021/08/22 06:07:23;;;;;;;5.33;4.83;;;17.90;99.90;;;;;;4880731;29;20262;-77
2021/08/22 06:09:53;;;;;;;4.33;3.93;;;18.00;99.90;;;;;;4880734;29;20449;-77
2021/08/22 06:12:20;;;;;;;5.67;4.30;;;18.20;99.90;;;;;;4880416;29;21031;-77
2021/08/22 06:14:49;;;;;;;4.80;4.30;;;18.30;99.90;;;;;;4880593;29;20408;-77
2021/08/22 06:17:18;;;;;;;5.37;4.17;;;18.30;99.90;;;;;;4880610;29;20827;-77
2021/08/22 06:19:45;;;;;;;5.70;4.20;;;18.30;99.90;;;;;;4879237;29;20435;-77
2021/08/22 06:22:11;;;;;;;7.10;4.80;;;18.30;99.90;;;;;;4880512;29;20439;-77
2021/08/22 06:24:38;;;;;;;5.80;4.97;;;18.40;99.90;;;;;;4880872;29;20912;-77
2021/08/22 06:27:06;;;;;;;8.40;4.80;;;18.40;99.90;;;;;;4881115;29;20581;-77
2021/08/22 06:29:34;;;;;;;4.40;4.00;;;18.50;99.90;;;;;;4879994;29;21016;-77
2021/08/22 06:32:00;;;;;;;5.07;4.57;;;18.60;99.90;;;;;;4880887;29;20474;-77
2021/08/22 06:34:27;;;;;;;6.77;5.27;;;18.70;99.90;;;;;;4878961;29;20428;-77
2021/08/22 06:36:54;;;;;;;5.47;5.00;;;18.80;99.90;;;;;;4880852;29;20171;-77
2021/08/22 06:39:21;;;;;;;4.80;4.23;;;19.00;99.90;;;;;;4881550;29;20503;-77
2021/08/22 06:41:55;;;;;;;6.63;4.70;;;19.10;99.90;;;;;;4880033;29;20864;-77
2021/08/22 06:44:22;;;;;;;4.33;3.90;;;19.10;99.90;;;;;;4885465;29;20424;-78
2021/08/22 06:46:48;;;;;;;4.77;4.37;;;19.20;99.90;;;;;;4885551;29;20424;-78
2021/08/22 06:49:14;;;;;;;4.53;4.20;;;19.10;99.90;;;;;;4881647;29;20419;-78
2021/08/22 06:51:40;;;;;;;4.23;3.83;;;19.10;99.90;;;;;;4878931;29;20475;-78
2021/08/22 06:54:06;;;;;;;8.60;4.93;;;19.10;99.90;;;;;;4880590;29;20412;-78
2021/08/22 06:56:32;;;;;;;8.90;4.77;;;19.20;99.90;;;;;;4880166;29;20178;-78
2021/08/22 06:58:58;;;;;;;4.83;4.33;;;19.20;99.90;;;;;;4879936;29;20175;-78
2021/08/22 07:01:24;;;;;;;4.80;3.90;;;19.20;99.90;;;;;;4879511;29;20527;-78
2021/08/22 07:03:49;;;;;;;5.23;4.73;;;19.20;99.90;;;;;;4879909;29;20176;-78
2021/08/22 07:06:16;;;;;;;5.80;5.20;;;19.20;99.90;;;;;;4879865;29;20187;-78
2021/08/22 07:08:41;;;;;;;8.00;4.70;;;19.20;99.90;;;;;;4879838;29;20336;-78
2021/08/22 07:11:07;;;;;;;5.10;4.70;;;19.20;99.90;;;;;;4879658;29;20554;-78
2021/08/22 07:13:33;;;;;;;7.93;5.30;;;19.30;99.90;;;;;;4879533;29;20182;-78
2021/08/22 07:15:59;;;;;;;8.80;5.60;;;19.30;99.90;;;;;;4879556;29;20176;-78
2021/08/22 07:18:24;;;;;;;6.27;4.97;;;19.30;99.90;;;;;;4879720;29;20419;-78
2021/08/22 07:20:50;;;;;;;9.73;4.57;;;19.30;99.90;;;;;;4879501;29;20199;-78
2021/08/22 07:23:15;;;;;;;4.33;4.00;;;19.40;99.90;;;;;;4879244;29;20191;-78
2021/08/22 07:25:41;;;;;;;6.00;5.40;;;19.50;99.90;;;;;;4879385;29;20385;-78
2021/08/22 07:28:07;;;;;;;5.77;4.53;;;19.50;99.90;;;;;;4877769;29;20712;-78
2021/08/22 07:30:33;;;;;;;13.07;5.37;;;19.60;99.90;;;;;;4879114;29;20218;-76
2021/08/22 07:33:01;;;;;;;6.00;5.40;;;19.70;99.90;;;;;;4878779;29;20218;-76
2021/08/22 07:35:27;;;;;;;6.50;5.90;;;19.90;99.90;;;;;;4879106;29;20175;-76
2021/08/22 07:37:52;;;;;;;5.93;5.47;;;19.90;99.90;;;;;;4879135;29;20419;-76
2021/08/22 07:40:18;;;;;;;5.57;4.90;;;20.00;99.90;;;;;;4879043;29;20195;-75
2021/08/22 07:42:43;;;;;;;5.87;5.33;;;19.90;99.90;;;;;;4877558;29;20642;-75
2021/08/22 07:45:10;;;;;;;5.37;4.37;;;20.00;99.90;;;;;;4878766;29;20545;-75
2021/08/22 07:47:35;;;;;;;5.27;4.77;;;19.90;99.90;;;;;;4878005;29;20656;-76
2021/08/22 07:50:01;;;;;;;5.53;4.70;;;20.10;99.90;;;;;;4878647;29;20416;-75
2021/08/22 07:52:27;;;;;;;4.77;4.37;;;20.20;99.90;;;;;;4878589;29;20559;-76
2021/08/22 07:54:52;;;;;;;5.40;4.67;;;20.30;99.90;;;;;;4877686;29;20179;-75
2021/08/22 07:57:18;;;;;;;5.80;4.87;;;20.50;99.90;;;;;;4877471;29;20172;-75
2021/08/22 07:59:44;;;;;;;4.50;4.13;;;20.70;99.90;;;;;;4878552;29;20183;-75
2021/08/22 08:02:10;;;;;;;6.27;4.13;;;20.80;99.90;;;;;;4878289;29;20252;-75
2021/08/22 08:04:35;;;;;;;4.37;4.07;;;20.90;99.90;;;;;;4878368;29;20531;-76
2021/08/22 08:07:01;;;;;;;4.83;4.40;;;20.80;99.90;;;;;;4878541;29;20284;-75
2021/08/22 08:09:27;;;;;;;6.20;4.83;;;21.00;99.90;;;;;;4878630;29;20243;-76
2021/08/22 08:11:52;;;;;;;4.47;3.90;;;21.10;99.90;;;;;;4878311;29;20720;-76
2021/08/22 08:14:18;;;;;;;4.30;4.00;;;21.20;99.90;;;;;;4878807;29;20470;-76
2021/08/22 08:16:44;;;;;;;4.43;4.03;;;21.20;99.90;;;;;;4878907;29;20254;-76
2021/08/22 08:19:09;;;;;;;6.40;5.07;;;21.30;99.90;;;;;;4878157;29;20196;-75
2021/08/22 08:21:35;;;;;;;5.90;4.77;;;21.40;99.90;;;;;;4878183;29;20211;-76
2021/08/22 08:24:01;;;;;;;4.50;4.10;;;21.50;99.90;;;;;;4879411;29;20215;-75
2021/08/22 08:26:27;;;;;;;4.30;3.90;;;21.60;99.90;;;;;;4879627;29;20420;-76
2021/08/22 08:28:52;;;;;;;5.23;4.40;;;21.90;99.90;;;;;;4879554;29;20259;-76
2021/08/22 08:31:18;;;;;;;5.17;4.40;;;22.20;99.90;;;;;;4878923;29;20211;-76
2021/08/22 08:33:44;;;;;;;4.30;3.90;;;22.50;99.90;;;;;;4878295;29;20179;-77
2021/08/22 08:36:09;;;;;;;4.17;3.83;;;22.60;99.90;;;;;;4880760;29;20250;-76
2021/08/22 08:38:35;;;;;;;4.60;4.20;;;22.70;99.90;;;;;;4878793;29;20168;-76
2021/08/22 08:41:04;;;;;;;4.37;3.97;;;22.90;99.90;;;;;;4878356;29;20239;-77
2021/08/22 08:43:30;;;;;;;4.97;4.47;;;23.00;99.90;;;;;;4878329;29;20179;-77
2021/08/22 08:45:55;;;;;;;6.40;4.07;;;23.10;99.90;;;;;;4878518;29;20516;-77
2021/08/22 08:48:25;;;;;;;6.00;3.73;;;23.10;99.90;;;;;;4878153;29;20595;-77
2021/08/22 08:50:59;;;;;;;5.70;3.50;;;23.00;99.90;;;;;;4878151;29;20239;-76
2021/08/22 08:53:33;;;;;;;5.03;3.80;;;22.80;99.90;;;;;;4878399;29;20419;-76
2021/08/22 08:56:20;;;;;;;4.67;4.10;;;22.60;99.90;;;;;;4878507;29;20405;-77
2021/08/22 08:58:46;;;;;;;5.33;4.40;;;22.50;99.90;;;;;;4882013;29;20420;-77
2021/08/22 09:01:12;;;;;;;4.37;3.40;;;22.50;99.90;;;;;;4882852;29;20436;-77
2021/08/22 09:03:43;;;;;;;4.57;4.17;;;22.30;99.90;;;;;;4882515;29;20269;-77
2021/08/22 09:06:11;;;;;;;4.70;4.27;;;22.10;99.90;;;;;;4882919;29;20171;-77
2021/08/22 09:09:01;;;;;;;5.20;4.70;;;22.10;99.90;;;;;;4882244;29;20511;-77
2021/08/22 09:12:04;;;;;;;4.90;3.93;;;22.00;99.90;;;;;;4881331;29;20472;-75
2021/08/22 09:15:07;;;;;;;6.20;4.07;;;21.90;99.90;;;;;;4881603;29;20411;-75
2021/08/22 09:18:01;;;;;;;4.30;4.00;;;21.80;99.90;;;;;;4880371;29;20506;-75
2021/08/22 09:20:41;;;;;;;4.87;4.30;;;21.80;99.90;;;;;;4881501;29;20790;-75
2021/08/22 09:23:44;;;;;;;4.43;4.13;;;21.70;99.90;;;;;;4881498;29;20420;-75
2021/08/22 09:26:30;;;;;;;7.23;3.60;;;21.80;99.90;;;;;;4881600;29;20454;-75
2021/08/22 09:29:20;;;;;;;4.17;3.83;;;22.00;99.90;;;;;;4881486;29;20435;-76
2021/08/22 09:32:10;;;;;;;4.70;4.40;;;22.10;99.90;;;;;;4880880;29;20471;-76
2021/08/22 09:35:13;;;;;;;4.80;3.53;;;22.20;99.90;;;;;;4881372;29;20506;-76
2021/08/22 09:38:00;;;;;;;5.13;3.63;;;22.10;99.90;;;;;;4881232;29;20431;-76
2021/08/22 09:41:00;;;;;;;3.97;3.63;;;21.90;99.90;;;;;;4881033;29;20490;-76
2021/08/22 09:44:03;;;;;;;4.30;4.00;;;21.70;99.90;;;;;;4881199;29;20427;-76
2021/08/22 09:46:47;;;;;;;4.57;4.13;;;21.50;99.90;;;;;;4880908;29;20416;-76
2021/08/22 09:49:24;;;;;;;4.67;4.27;;;21.50;99.90;;;;;;4880961;29;20435;-75
2021/08/22 09:52:27;;;;;;;6.03;4.67;;;21.40;99.90;;;;;;4881035;29;20479;-75
2021/08/22 09:55:27;;;;;;;5.03;4.30;;;21.40;99.90;;;;;;4881034;29;20468;-75
2021/08/22 09:58:34;;;;;;;4.70;4.30;;;21.30;99.90;;;;;;4879765;29;20427;-75
2021/08/22 10:01:18;;;;;;;5.43;4.80;;;21.40;99.90;;;;;;4861399;29;20968;-76
2021/08/22 10:04:10;;;;;;;5.07;4.60;;;21.60;99.90;;;;;;4880596;29;20416;-75
2021/08/22 10:06:41;;;;;;;4.20;3.70;;;21.50;99.90;;;;;;4880738;29;20434;-75
2021/08/22 10:09:11;;;;;;;7.90;4.90;;;21.60;99.90;;;;;;4879396;29;20423;-75
2021/08/22 10:12:01;;;;;;;5.60;4.80;;;21.60;99.90;;;;;;4880575;29;20486;-75
2021/08/22 10:14:31;;;;;;;5.77;5.27;;;21.50;99.90;;;;;;4880013;29;20432;-76
2021/08/22 10:16:57;;;;;;;7.83;4.47;;;21.40;99.90;;;;;;4880641;29;20435;-75
2021/08/22 10:19:25;;;;;;;7.43;5.53;;;21.40;99.90;;;;;;4880319;29;20937;-76
2021/08/22 10:22:08;;;;;;;6.53;5.90;;;21.20;99.90;;;;;;4880603;29;20553;-76
2021/08/22 10:24:37;;;;;;;7.20;6.47;;;20.90;99.90;;;;;;4880482;29;20483;-76
2021/08/22 10:27:04;;;;;;;10.07;7.60;;;20.70;99.90;;;;;;4880372;29;20791;-76
2021/08/22 10:29:35;;;;;;;10.20;5.63;;;20.50;99.90;;;;;;4879032;29;20427;-76
2021/08/22 10:32:03;;;;;;;7.60;6.63;;;20.40;99.90;;;;;;4880489;29;20476;-76
2021/08/22 10:34:30;;;;;;;7.10;6.40;;;20.20;99.90;;;;;;4880297;29;20420;-77
2021/08/22 10:36:56;;;;;;;11.70;7.40;;;20.10;99.90;;;;;;4880443;29;20594;-77
2021/08/22 10:39:22;;;;;;;7.23;6.53;;;20.00;99.90;;;;;;4880172;29;20416;-78
2021/08/22 10:41:55;;;;;;;9.37;6.77;;;20.00;99.90;;;;;;4880211;29;20495;-77
2021/08/22 10:44:33;;;;;;;7.43;6.73;;;19.90;99.90;;;;;;4880191;29;20187;-77
2021/08/22 10:47:08;;;;;;;8.23;6.97;;;19.90;99.90;;;;;;4880391;29;20794;-77
2021/08/22 10:49:52;;;;;;;11.37;7.50;;;19.90;99.90;;;;;;4881841;29;20451;-79
2021/08/22 10:52:27;;;;;;;7.60;7.00;;;19.80;99.90;;;;;;4880142;29;20475;-77
2021/08/22 10:55:14;;;;;;;8.70;8.00;;;19.80;99.90;;;;;;4878700;29;20411;-77
2021/08/22 10:57:48;;;;;;;10.07;8.33;;;20.00;99.90;;;;;;4878663;29;20459;-76
2021/08/22 11:00:24;;;;;;;8.07;7.37;;;20.00;99.90;;;;;;4879790;29;20450;-76
2021/08/22 11:03:02;;;;;;;12.30;8.13;;;20.00;99.90;;;;;;4880148;29;20423;-76
2021/08/22 11:05:30;;;;;;;9.40;8.50;;;19.90;99.90;;;;;;4880111;29;20400;-76
2021/08/22 11:08:10;;;;;;;6.67;6.00;;;19.80;99.90;;;;;;4879913;29;20487;-76
2021/08/22 11:10:35;;;;;;;6.57;4.50;;;19.70;99.90;;;;;;4878621;29;20482;-77
2021/08/22 11:13:01;;;;;;;4.00;3.67;;;19.50;99.90;;;;;;4880393;29;20420;-77
2021/08/22 11:15:28;;;;;;;2.67;2.47;;;19.30;99.90;;;;;;4878504;29;20187;-78
2021/08/22 11:17:57;;;;;;;2.13;2.03;;;19.10;99.90;;;;;;4880004;29;20227;-77
2021/08/22 11:20:28;;;;;;;2.23;2.00;;;18.90;99.90;;;;;;4879686;29;20424;-77
2021/08/22 11:23:08;;;;;;;5.53;2.30;;;18.80;99.90;;;;;;4879224;29;20475;-77
2021/08/22 11:25:34;;;;;;;4.33;2.00;;;18.60;99.90;;;;;;4879085;29;21020;-77
2021/08/22 11:28:11;;;;;;;5.13;2.57;;;18.50;99.90;;;;;;4878537;29;20437;-77
2021/08/22 11:30:38;;;;;;;3.73;2.37;;;18.50;99.90;;;;;;4878259;29;20475;-77
2021/08/22 11:33:04;;;;;;;3.33;2.13;;;18.40;99.90;;;;;;4879860;29;20436;-77
2021/08/22 11:35:34;;;;;;;7.07;2.20;;;18.30;99.90;;;;;;4879441;29;20556;-77
2021/08/22 11:38:00;;;;;;;3.03;2.40;;;18.30;99.90;;;;;;4878542;29;20518;-77
2021/08/22 11:40:27;;;;;;;2.20;2.10;;;18.30;99.90;;;;;;4877713;29;20464;-77
2021/08/22 11:42:56;;;;;;;3.57;3.00;;;18.40;99.90;;;;;;4877883;29;20435;-77
2021/08/22 11:45:26;;;;;;;1.83;1.73;;;18.40;99.90;;;;;;4878858;29;20797;-77
2021/08/22 11:47:54;;;;;;;2.20;2.00;;;18.50;99.90;;;;;;4879290;29;20427;-76
2021/08/22 11:50:25;;;;;;;1.70;1.60;;;18.40;99.90;;;;;;4896544;29;20485;-76
2021/08/22 11:52:53;;;;;;;2.80;1.73;;;18.40;99.90;;;;;;4897788;29;20418;-76
2021/08/22 11:55:20;;;;;;;2.00;1.90;;;18.30;99.90;;;;;;4896962;29;20416;-76
2021/08/22 11:57:46;;;;;;;2.70;2.20;;;18.40;99.90;;;;;;4896918;29;20671;-76
2021/08/22 12:00:17;;;;;;;3.50;3.17;;;18.40;99.90;;;;;;4897713;29;20439;-76
2021/08/22 12:02:58;;;;;;;2.83;2.30;;;18.40;99.90;;;;;;4897663;29;20971;-75
2021/08/22 12:05:25;;;;;;;3.15;2.70;;;18.40;99.90;;;;;;4897335;29;20417;-76
2021/08/22 12:08:05;;;;;;;2.30;2.13;;;18.40;99.90;;;;;;4897665;29;20167;-76
2021/08/22 12:10:34;;;;;;;2.60;2.40;;;18.40;99.90;;;;;;4895859;29;20550;-75
2021/08/22 12:13:02;;;;;;;2.63;2.00;;;18.40;99.90;;;;;;4899824;29;20439;-77
2021/08/22 12:15:36;;;;;;;2.30;2.10;;;18.40;99.90;;;;;;4897858;29;20814;-76
2021/08/22 12:18:14;;;;;;;3.37;1.80;;;18.50;99.90;;;;;;4897695;29;20407;-77
2021/08/22 12:20:40;;;;;;;2.10;2.00;;;18.40;99.90;;;;;;4896145;29;20936;-77
2021/08/22 12:23:11;;;;;;;2.10;1.80;;;18.40;99.90;;;;;;4897573;29;20538;-77
2021/08/22 12:25:38;;;;;;;2.10;1.70;;;18.30;99.90;;;;;;4897205;29;20531;-77
2021/08/22 12:28:33;;;;;;;5.10;2.87;;;18.20;99.90;;;;;;4897466;29;20512;-77
2021/08/22 12:31:07;;;;;;;6.00;2.70;;;18.10;99.90;;;;;;4888529;29;20478;-77
2021/08/22 12:33:41;;;;;;;3.00;1.70;;;18.10;99.90;;;;;;4896879;29;20427;-77
2021/08/22 12:36:14;;;;;;;2.93;2.50;;;17.90;99.90;;;;;;4897453;29;20431;-76
2021/08/22 12:38:52;;;;;;;2.93;2.20;;;17.90;99.90;;;;;;4897490;29;20402;-77
2021/08/22 12:41:25;;;;;;;3.40;2.10;;;17.80;99.90;;;;;;4896352;29;20919;-76
2021/08/22 12:43:53;;;;;;;9.20;2.30;;;17.90;99.90;;;;;;4897178;29;20547;-76
2021/08/22 12:46:20;;;;;;;2.73;2.50;;;17.90;99.90;;;;;;4896710;29;20419;-76
2021/08/22 12:48:46;;;;;;;2.40;2.30;;;18.00;99.90;;;;;;4897143;29;20419;-76
2021/08/22 12:51:12;;;;;;;2.53;1.97;;;18.10;99.90;;;;;;4897062;29;20469;-76
2021/08/22 12:53:38;;;;;;;2.40;2.20;;;18.10;99.90;;;;;;4897362;29;20171;-76
2021/08/22 12:56:04;;;;;;;2.40;2.20;;;18.20;99.90;;;;;;4897143;29;20506;-76
2021/08/22 12:58:30;;;;;;;4.80;2.80;;;18.30;99.90;;;;;;4897707;29;20419;-76
2021/08/22 13:00:57;;;;;;;2.20;2.10;;;18.40;99.90;;;;;;4897069;29;20498;-76
2021/08/22 13:03:23;;;;;;;2.70;2.50;;;18.40;99.90;;;;;;4895544;29;20690;-76
2021/08/22 13:05:49;;;;;;;3.53;2.47;;;18.40;99.90;;;;;;4895629;29;20450;-76
2021/08/22 13:08:15;;;;;;;3.77;2.90;;;18.40;99.90;;;;;;4896860;29;20419;-76
2021/08/22 13:10:40;;;;;;;2.83;2.63;;;18.50;99.90;;;;;;4895792;29;20444;-75
2021/08/22 13:13:06;;;;;;;4.93;2.33;;;18.60;99.90;;;;;;4896656;29;20211;-75
2021/08/22 13:15:31;;;;;;;2.60;2.40;;;18.70;99.90;;;;;;4894636;29;20182;-75
2021/08/22 13:17:57;;;;;;;2.97;2.33;;;18.70;99.90;;;;;;4896687;29;20682;-75
2021/08/22 13:20:23;;;;;;;2.77;2.57;;;18.80;99.90;;;;;;4895233;29;20214;-75
2021/08/22 13:22:48;;;;;;;2.27;2.10;;;18.80;99.90;;;;;;4897167;29;20176;-77
2021/08/22 13:25:14;;;;;;;2.50;2.40;;;18.80;99.90;;;;;;4896670;29;20187;-77
2021/08/22 13:27:40;;;;;;;2.60;2.40;;;18.80;99.90;;;;;;4896369;29;20179;-77
2021/08/22 13:30:06;;;;;;;4.77;2.37;;;18.70;99.90;;;;;;4894978;29;20283;-77
2021/08/22 13:32:32;;;;;;;4.57;2.93;;;18.60;99.90;;;;;;4896037;29;20800;-77
2021/08/22 13:34:57;;;;;;;3.87;2.83;;;18.50;99.90;;;;;;4896579;29;20502;-77
2021/08/22 13:37:23;;;;;;;2.87;2.60;;;18.50;99.90;;;;;;4896115;29;20187;-77
2021/08/22 13:39:48;;;;;;;3.43;2.70;;;18.50;99.90;;;;;;4896283;29;20640;-77
2021/08/22 13:42:14;;;;;;;2.50;2.30;;;18.50;99.90;;;;;;4896115;29;20202;-77
2021/08/22 13:44:39;;;;;;;2.93;2.67;;;18.50;99.90;;;;;;4898104;29;20198;-78
2021/08/22 13:47:06;;;;;;;3.37;2.57;;;18.40;99.90;;;;;;4899502;29;20185;-77
2021/08/22 13:49:33;;;;;;;10.63;3.30;;;18.40;99.90;;;;;;4897794;29;20179;-77
2021/08/22 13:51:59;;;;;;;2.83;2.33;;;18.40;99.90;;;;;;4899527;29;20494;-78
2021/08/22 13:54:24;;;;;;;3.60;3.30;;;18.30;99.90;;;;;;4900784;29;20427;-78
2021/08/22 13:56:50;;;;;;;3.57;3.13;;;18.30;99.90;;;;;;4903103;29;20443;-79
2021/08/22 13:59:16;;;;;;;4.47;2.57;;;18.20;99.90;;;;;;4900059;29;20187;-78
2021/08/22 14:01:41;;;;;;;5.27;2.73;;;18.20;99.90;;;;;;4900562;29;20198;-78
2021/08/22 14:04:07;;;;;;;4.33;3.43;;;18.20;99.90;;;;;;4900426;29;20500;-78
2021/08/22 14:06:32;;;;;;;4.00;3.40;;;18.10;99.90;;;;;;4898101;29;20182;-78
2021/08/22 14:08:58;;;;;;;3.37;3.07;;;18.10;99.90;;;;;;4897900;29;20246;-78
2021/08/22 14:11:24;;;;;;;3.87;3.00;;;18.10;99.90;;;;;;4899509;29;20221;-78
2021/08/22 14:13:50;;;;;;;3.00;2.80;;;18.10;99.90;;;;;;4901833;29;20182;-78
2021/08/22 14:16:16;;;;;;;7.20;3.30;;;18.20;99.90;;;;;;4902161;29;20246;-79
2021/08/22 14:18:41;;;;;;;3.40;3.10;;;18.20;99.90;;;;;;4901817;29;20818;-79
2021/08/22 14:21:08;;;;;;;4.20;3.33;;;18.30;99.90;;;;;;4900295;29;20207;-78
2021/08/22 14:23:34;;;;;;;5.80;2.60;;;18.40;99.90;;;;;;4901415;29;20554;-78
2021/08/22 14:25:59;;;;;;;3.50;3.20;;;18.40;99.90;;;;;;4902820;29;20426;-78
2021/08/22 14:28:26;;;;;;;3.90;2.50;;;18.40;99.90;;;;;;4901958;29;20195;-78
2021/08/22 14:30:52;;;;;;;2.37;2.27;;;18.50;99.90;;;;;;4900716;29;20210;-78
2021/08/22 14:33:17;;;;;;;2.63;2.43;;;18.50;99.90;;;;;;4900393;29;20423;-78
2021/08/22 14:35:43;;;;;;;2.87;2.60;;;18.50;99.90;;;;;;4899405;29;20655;-78
2021/08/22 14:38:10;;;;;;;2.87;2.67;;;18.50;99.90;;;;;;4900768;29;20540;-79
2021/08/22 14:40:37;;;;;;;2.50;2.23;;;18.60;99.90;;;;;;4898908;29;20199;-79
2021/08/22 14:43:03;;;;;;;4.87;3.20;;;18.60;99.90;;;;;;4901011;29;20442;-79
2021/08/22 14:45:29;;;;;;;3.93;2.50;;;18.60;99.90;;;;;;4901639;29;20438;-79
2021/08/22 14:47:55;;;;;;;3.03;2.37;;;18.60;99.90;;;;;;4899971;29;20575;-78
2021/08/22 14:50:22;;;;;;;4.27;2.30;;;18.60;99.90;;;;;;4898390;29;20868;-78
2021/08/22 14:52:49;;;;;;;4.90;2.10;;;18.60;99.90;;;;;;4898571;29;20246;-78
2021/08/22 14:55:15;;;;;;;2.10;2.00;;;18.60;99.90;;;;;;4898192;29;20479;-78
2021/08/22 14:57:41;;;;;;;2.87;1.90;;;18.70;99.90;;;;;;4899384;29;20574;-78
2021/08/22 15:00:07;;;;;;;2.67;2.47;;;18.70;99.90;;;;;;4898555;29;20521;-77
2021/08/22 15:02:32;;;;;;;3.63;2.27;;;18.70;99.90;;;;;;4895500;29;20232;-78
2021/08/22 15:05:00;;;;;;;2.17;2.07;;;18.60;99.90;;;;;;4898158;29;20492;-77
2021/08/22 15:07:25;;;;;;;2.10;2.00;;;18.60;99.90;;;;;;4898140;29;20219;-77
2021/08/22 15:09:51;;;;;;;3.03;1.90;;;18.60;99.90;;;;;;4898507;29;20799;-77
2021/08/22 15:12:17;;;;;;;2.20;2.10;;;18.60;99.90;;;;;;4897952;29;20650;-77
2021/08/22 15:14:46;;;;;;;2.33;2.13;;;18.60;99.90;;;;;;4898639;29;20454;-77
2021/08/22 15:17:12;;;;;;;2.80;2.00;;;18.60;99.90;;;;;;4898583;29;20636;-77
2021/08/22 15:19:38;;;;;;;4.20;2.50;;;18.60;99.90;;;;;;4895784;29;20521;-76
2021/08/22 15:22:04;;;;;;;4.07;2.10;;;18.60;99.90;;;;;;4897682;29;20614;-76
2021/08/22 15:24:39;;;;;;;2.30;2.10;;;18.60;99.90;;;;;;4897929;29;20194;-76
2021/08/22 15:27:06;;;;;;;2.43;2.00;;;18.50;99.90;;;;;;4898236;29;20913;-76
2021/08/22 15:29:33;;;;;;;2.03;1.87;;;18.60;99.90;;;;;;4897703;29;20514;-76
2021/08/22 15:32:04;;;;;;;2.60;1.83;;;18.50;99.90;;;;;;4879265;29;20471;-75
2021/08/22 15:34:34;;;;;;;3.47;2.13;;;18.50;99.90;;;;;;4879766;29;20431;-75
2021/08/22 15:37:05;;;;;;;2.40;2.20;;;18.40;99.90;;;;;;4885219;29;20530;-76
2021/08/22 15:39:36;;;;;;;2.67;2.47;;;18.40;99.90;;;;;;4898011;29;20790;-76
2021/08/22 15:42:06;;;;;;;4.77;3.17;;;18.30;99.90;;;;;;4897669;29;20447;-76
2021/08/22 15:44:37;;;;;;;2.83;2.40;;;18.30;99.90;;;;;;4897795;29;21002;-76
2021/08/22 15:47:05;;;;;;;1.97;1.87;;;18.20;99.90;;;;;;4905201;29;20422;-79
2021/08/22 15:49:30;;;;;;;4.37;1.83;;;18.00;99.90;;;;;;4918230;29;20422;-80
2021/08/22 15:51:57;;;;;;;2.20;2.00;;;17.80;99.90;;;;;;4919996;29;20474;-79
2021/08/22 15:54:22;;;;;;;5.33;2.10;;;17.70;99.90;;;;;;4918414;29;20178;-78
2021/08/22 15:56:48;;;;;;;3.60;1.57;;;17.70;99.90;;;;;;4917837;29;20425;-77
2021/08/22 15:59:14;;;;;;;2.17;1.60;;;17.60;99.90;;;;;;4917534;29;20249;-77
2021/08/22 16:01:40;;;;;;;2.33;1.80;;;17.60;99.90;;;;;;4916752;29;20710;-77
2021/08/22 16:04:05;;;;;;;3.80;1.67;;;17.50;99.90;;;;;;4917685;29;20178;-77
2021/08/22 16:06:32;;;;;;;2.80;2.00;;;17.40;99.90;;;;;;4917154;29;20677;-77
2021/08/22 16:08:58;;;;;;;2.03;1.60;;;17.30;99.90;;;;;;4916553;29;20257;-77
2021/08/22 16:11:24;;;;;;;2.83;1.33;;;17.20;99.90;;;;;;4916792;29;20465;-77
2021/08/22 16:13:50;;;;;;;1.87;1.30;;;17.10;99.90;;;;;;4917572;29;20474;-76
2021/08/22 16:16:15;;;;;;;2.23;2.03;;;17.10;99.90;;;;;;4917144;29;20170;-77
2021/08/22 16:18:41;;;;;;;2.60;1.60;;;17.00;99.90;;;;;;4917580;29;21032;-77
2021/08/22 16:21:07;;;;;;;3.50;1.73;;;17.00;99.90;;;;;;4916984;29;20197;-77
2021/08/22 16:23:33;;;;;;;3.70;1.80;;;17.00;99.90;;;;;;4916676;29;20539;-77
2021/08/22 16:25:59;;;;;;;2.63;2.20;;;16.90;99.90;;;;;;4916250;29;20178;-76
2021/08/22 16:28:24;;;;;;;6.90;6.10;;;16.90;99.90;;;;;;4916457;29;20429;-76
2021/08/22 16:30:50;;;;;;;9.67;8.77;;;16.90;99.90;;;;;;4915879;29;20206;-76
2021/08/22 16:33:16;;;;;;;6.67;6.07;;;16.90;99.90;;;;;;4916142;29;20170;-76
2021/08/22 16:35:42;;;;;;;6.37;5.13;;;16.90;99.90;;;;;;4916443;29;20237;-76
2021/08/22 16:38:08;;;;;;;6.50;4.57;;;16.90;99.90;;;;;;4916479;29;20413;-76
2021/08/22 16:40:37;;;;;;;4.13;3.80;;;16.90;99.90;;;;;;4916443;29;20434;-76
2021/08/22 16:43:04;;;;;;;5.33;4.40;;;16.80;99.90;;;;;;4916517;29;20184;-77
2021/08/22 16:45:30;;;;;;;3.00;1.93;;;16.80;99.90;;;;;;4916116;29;20406;-77
2021/08/22 16:47:55;;;;;;;3.10;2.77;;;16.70;99.90;;;;;;4916061;29;20416;-77
2021/08/22 16:50:22;;;;;;;2.20;2.10;;;16.70;99.90;;;;;;4915634;29;20422;-77
2021/08/22 16:52:47;;;;;;;2.90;1.90;;;16.70;99.90;;;;;;4916343;29;20527;-76
2021/08/22 16:55:13;;;;;;;2.73;2.00;;;16.80;99.90;;;;;;4915772;29;20915;-77
2021/08/22 16:57:39;;;;;;;4.50;1.60;;;16.80;99.90;;;;;;4917997;29;20426;-80
2021/08/22 17:00:06;;;;;;;5.00;2.57;;;16.80;99.90;;;;;;4916454;29;20174;-77
2021/08/22 17:02:33;;;;;;;2.17;1.63;;;16.90;99.90;;;;;;4915174;29;20560;-77
2021/08/22 17:04:59;;;;;;;3.37;2.23;;;16.90;99.90;;;;;;4916330;29;20418;-77
2021/08/22 17:07:24;;;;;;;2.53;2.33;;;16.90;99.90;;;;;;4916266;29;20535;-77
2021/08/22 17:09:50;;;;;;;2.23;2.03;;;17.00;99.90;;;;;;4917503;29;20418;-77
2021/08/22 17:12:17;;;;;;;3.40;2.10;;;17.00;99.90;;;;;;4914558;29;20714;-76
2021/08/22 17:14:43;;;;;;;4.03;3.70;;;17.10;99.90;;;;;;4916250;29;20457;-77
2021/08/22 17:17:09;;;;;;;1.50;1.40;;;17.10;99.90;;;;;;4916350;29;20442;-77
2021/08/22 17:19:34;;;;;;;5.03;1.90;;;17.20;99.90;;;;;;4918089;29;20265;-77
2021/08/22 17:22:09;;;;;;;5.70;1.70;;;17.10;99.90;;;;;;4920151;29;20253;-77
2021/08/22 17:24:39;;;;;;;2.53;2.30;;;17.00;99.90;;;;;;4918877;29;20209;-77
2021/08/22 17:27:09;;;;;;;3.47;2.53;;;17.10;99.90;;;;;;4921222;29;20469;-78
2021/08/22 17:29:36;;;;;;;3.40;1.97;;;17.00;99.90;;;;;;4910080;29;20427;-78